Time;durP1;ratioP1;P1;durP2;ratioP2;P2;SDS_P1;SDS_P2;PMS_P1;PMS_P2;Temp;Humidity;BMP_temperature;BMP_pressure;BME280_temperature;BME280_humidity;BME280_pressure;Samples;Min_cycle;Max_cycle;Signal;HPM_P1;HPM_P2
2022/03/30 00:00:45;;;;;;;;;56.75;45.75;;;;;15.28;44.19;100000.69;4968298;28;45864;-62
2022/03/30 00:03:10;;;;;;;;;56.25;46.25;;;;;15.26;44.49;100002.53;4978090;28;45173;-61
2022/03/30 00:05:36;;;;;;;;;55.00;45.75;;;;;15.25;44.92;100006.13;4976619;28;45399;-61
2022/03/30 00:08:02;;;;;;;;;58.75;44.50;;;;;15.22;44.66;99998.31;4989109;28;47004;-61
2022/03/30 00:10:27;;;;;;;;;58.50;46.00;;;;;15.20;44.75;99992.22;4958291;28;45403;-61
2022/03/30 00:12:54;;;;;;;;;59.25;47.75;;;;;15.18;44.89;99995.88;4958512;28;45252;-61
2022/03/30 00:15:20;;;;;;;;;55.75;46.50;;;;;15.15;44.73;99988.94;4958523;28;45256;-61
2022/03/30 00:17:45;;;;;;;;;61.00;45.25;;;;;15.10;44.48;99990.94;4958173;28;45340;-61
2022/03/30 00:20:12;;;;;;;;;61.25;45.75;;;;;15.09;44.38;99994.50;4957004;28;45436;-61
2022/03/30 00:22:40;;;;;;;;;56.25;47.25;;;;;15.04;44.63;99992.09;4956911;28;45407;-62
2022/03/30 00:25:07;;;;;;;;;61.00;47.75;;;;;15.02;44.88;99993.94;4958269;28;45487;-61
2022/03/30 00:27:33;;;;;;;;;54.00;44.25;;;;;14.99;44.64;99994.06;4958100;28;47163;-61
2022/03/30 00:29:59;;;;;;;;;54.75;45.25;;;;;14.98;44.71;99989.72;4956900;28;45873;-62
2022/03/30 00:32:24;;;;;;;;;56.00;47.50;;;;;14.95;44.47;99982.78;4957011;28;45351;-61
2022/03/30 00:34:49;;;;;;;;;60.25;46.25;;;;;14.90;44.96;99990.03;4950482;28;45380;-61
2022/03/30 00:37:15;;;;;;;;;66.00;50.75;;;;;14.90;44.59;99986.53;4961185;28;45908;-60
2022/03/30 00:39:40;;;;;;;;;60.50;47.50;;;;;14.87;45.02;99984.88;4958129;28;45436;-61
2022/03/30 00:42:24;;;;;;;;;57.75;46.50;;;;;14.85;44.71;99984.06;4956806;28;45427;-62
2022/03/30 00:44:51;;;;;;;;;61.75;49.50;;;;;14.82;44.88;99976.28;4973120;28;45284;-62
2022/03/30 00:47:19;;;;;;;;;56.50;46.75;;;;;14.81;45.09;99977.22;4957968;28;46341;-61
2022/03/30 00:49:45;;;;;;;;;59.25;47.25;;;;;14.79;44.86;99974.66;4957737;28;45395;-61
2022/03/30 00:52:12;;;;;;;;;60.00;48.25;;;;;14.78;44.78;99972.06;4958090;28;45253;-61
2022/03/30 00:54:38;;;;;;;;;63.00;49.25;;;;;14.76;44.89;99972.13;4957757;28;45357;-61
2022/03/30 00:57:07;;;;;;;;;62.75;50.25;;;;;14.73;45.03;99958.16;4957782;28;46058;-61
2022/03/30 00:59:33;;;;;;;;;62.75;48.50;;;;;14.73;45.00;99952.88;4957743;28;45337;-61
2022/03/30 01:01:59;;;;;;;;;59.00;46.25;;;;;14.69;45.25;99944.25;4977548;28;45453;-61
2022/03/30 01:04:28;;;;;;;;;57.25;45.00;;;;;14.70;45.13;99945.09;4977984;28;45532;-61
2022/03/30 01:06:53;;;;;;;;;62.75;49.50;;;;;14.68;45.44;99939.88;4980317;28;46280;-61
2022/03/30 01:09:20;;;;;;;;;66.25;50.50;;;;;14.67;45.50;99932.03;4980812;28;45166;-62
2022/03/30 01:11:47;;;;;;;;;65.50;50.75;;;;;14.63;45.29;99936.53;4960716;28;45518;-61
2022/03/30 01:14:13;;;;;;;;;62.25;50.50;;;;;14.64;45.51;99946.22;4960608;28;45355;-61
2022/03/30 01:16:41;;;;;;;;;65.00;51.50;;;;;14.59;45.77;99930.53;4960577;28;46963;-61
2022/03/30 01:19:09;;;;;;;;;64.50;50.50;;;;;14.60;45.85;99931.38;4960764;28;45232;-61
2022/03/30 01:21:36;;;;;;;;;62.00;49.00;;;;;14.59;45.70;99933.19;4960477;28;45435;-61
2022/03/30 01:24:02;;;;;;;;;58.75;48.25;;;;;14.54;45.44;99924.59;4960490;28;45280;-62
2022/03/30 01:26:28;;;;;;;;;63.00;50.25;;;;;14.55;45.86;99925.44;4959338;28;48626;-61
2022/03/30 01:28:54;;;;;;;;;62.50;47.50;;;;;14.52;45.85;99921.13;4960531;28;45447;-62
2022/03/30 01:34:04;;;;;;;;;56.50;46.50;;;;;14.46;45.95;99911.72;4960390;28;45324;-62
2022/03/30 01:36:30;;;;;;;;;60.50;48.25;;;;;14.45;45.74;99909.09;4960177;28;46403;-61
2022/03/30 01:38:55;;;;;;;;;65.25;51.75;;;;;14.38;45.99;99900.59;4960118;28;45304;-61
2022/03/30 01:41:21;;;;;;;;;62.00;48.50;;;;;14.41;45.72;99904.88;4960500;28;45432;-61
2022/03/30 01:43:46;;;;;;;;;61.00;48.25;;;;;14.41;46.09;99902.25;4959029;28;45871;-61
2022/03/30 01:46:11;;;;;;;;;65.00;50.75;;;;;14.41;45.89;99902.25;4959135;28;47014;-61
2022/03/30 01:48:37;;;;;;;;;60.00;49.00;;;;;14.40;46.22;99895.25;4958855;28;45170;-61
2022/03/30 01:51:03;;;;;;;;;68.50;53.25;;;;;14.37;46.30;99896.22;4960138;28;45233;-61
2022/03/30 01:53:28;;;;;;;;;62.75;50.25;;;;;14.39;45.91;99894.41;4960184;28;45157;-61
2022/03/30 01:55:54;;;;;;;;;64.50;49.50;;;;;14.39;45.99;99899.69;4960131;28;46137;-61
2022/03/30 01:58:20;;;;;;;;;65.75;52.00;;;;;14.38;46.35;99891.81;4959976;28;45255;-61
2022/03/30 02:00:46;;;;;;;;;60.00;48.75;;;;;14.40;45.87;99897.88;4970163;28;45497;-61
2022/03/30 02:03:12;;;;;;;;;62.25;49.50;;;;;14.39;45.97;99889.09;4979458;28;45441;-61
2022/03/30 02:05:38;;;;;;;;;62.25;49.00;;;;;14.37;46.03;99892.75;4979372;28;46311;-61
2022/03/30 02:08:04;;;;;;;;;64.00;49.50;;;;;14.39;45.99;99893.50;5005011;27;45401;-62
2022/03/30 02:10:30;;;;;;;;;61.75;47.25;;;;;14.38;46.20;99889.19;4959902;28;45419;-62
2022/03/30 02:12:55;;;;;;;;;64.00;50.75;;;;;14.37;46.36;99887.47;4959962;28;45194;-62
2022/03/30 02:15:22;;;;;;;;;61.00;48.25;;;;;14.36;46.55;99891.88;4960036;28;45221;-61
2022/03/30 02:17:48;;;;;;;;;63.50;49.25;;;;;14.34;46.41;99883.16;4974630;28;45414;-62
2022/03/30 02:20:13;;;;;;;;;68.00;52.50;;;;;14.33;46.36;99884.09;4958530;28;45471;-61
2022/03/30 02:22:38;;;;;;;;;62.75;50.75;;;;;14.31;46.19;99875.34;4959772;28;45613;-61
2022/03/30 02:25:04;;;;;;;;;63.50;50.75;;;;;14.30;46.18;99879.78;4959815;28;46240;-61
2022/03/30 02:27:30;;;;;;;;;64.25;49.75;;;;;14.29;46.74;99872.78;4958383;28;45240;-61
2022/03/30 02:29:56;;;;;;;;;61.50;48.00;;;;;14.28;46.30;99872.84;4959984;28;45277;-61
2022/03/30 02:32:22;;;;;;;;;63.50;50.25;;;;;14.24;46.29;99864.19;4959689;28;45529;-62
2022/03/30 02:34:47;;;;;;;;;62.75;49.50;;;;;14.24;46.86;99863.34;4959741;28;45341;-62
2022/03/30 02:37:13;;;;;;;;;62.75;50.00;;;;;14.21;46.84;99853.75;4959560;28;45436;-61
2022/03/30 02:39:39;;;;;;;;;67.50;50.25;;;;;14.20;46.93;99848.53;4959818;28;45398;-61
2022/03/30 02:42:07;;;;;;;;;68.75;51.25;;;;;14.17;46.44;99844.25;4958268;28;45585;-61
2022/03/30 02:44:34;;;;;;;;;63.25;49.75;;;;;14.15;46.53;99840.81;4959603;28;45526;-61
2022/03/30 02:47:00;;;;;;;;;66.00;51.25;;;;;14.14;46.56;99842.59;4974377;28;45276;-61
2022/03/30 02:49:26;;;;;;;;;63.25;47.25;;;;;14.12;46.75;99840.94;4959577;28;45444;-61
2022/03/30 02:51:52;;;;;;;;;62.75;51.50;;;;;14.08;46.92;99836.72;4959522;28;45625;-61
2022/03/30 02:54:18;;;;;;;;;64.00;51.00;;;;;14.08;46.41;99829.66;4959357;28;46143;-61
2022/03/30 02:56:43;;;;;;;;;63.00;50.25;;;;;14.07;46.98;99841.13;4959347;28;45311;-62
2022/03/30 02:59:09;;;;;;;;;58.75;48.00;;;;;14.05;46.70;99842.13;4959654;28;45446;-61
2022/03/30 03:01:34;;;;;;;;;58.50;46.25;;;;;14.05;46.71;99844.78;4975641;28;45513;-61
2022/03/30 03:03:59;;;;;;;;;61.75;47.75;;;;;14.03;47.33;99842.19;4978953;28;45430;-61
2022/03/30 03:06:25;;;;;;;;;60.25;47.50;;;;;14.02;46.88;99839.63;4977257;28;45325;-61
2022/03/30 03:08:51;;;;;;;;;61.50;49.50;;;;;14.02;46.89;99839.63;4980864;28;45240;-61
2022/03/30 03:11:17;;;;;;;;;61.25;46.50;;;;;14.02;47.26;99844.91;4959141;28;45440;-61
2022/03/30 03:13:42;;;;;;;;;65.75;49.00;;;;;14.01;46.96;99840.56;4959283;28;45173;-62
2022/03/30 03:16:08;;;;;;;;;61.00;48.50;;;;;14.00;47.00;99837.06;4959194;28;45225;-61
2022/03/30 03:18:35;;;;;;;;;64.50;49.75;;;;;14.00;47.25;99842.34;4959443;28;45175;-61
2022/03/30 03:21:00;;;;;;;;;64.00;48.75;;;;;13.98;47.37;99842.38;4957727;28;45423;-60
2022/03/30 03:23:26;;;;;;;;;61.25;47.75;;;;;13.97;47.00;99837.19;4959131;28;46231;-61
2022/03/30 03:25:51;;;;;;;;;61.25;47.50;;;;;13.96;47.23;99833.69;4958947;28;45323;-62
2022/03/30 03:28:17;;;;;;;;;61.75;50.00;;;;;13.96;47.13;99828.41;4958799;28;45252;-61
2022/03/30 03:30:42;;;;;;;;;63.00;50.00;;;;;13.96;47.34;99823.13;4959138;28;45386;-61
2022/03/30 03:33:08;;;;;;;;;61.50;48.00;;;;;13.97;47.19;99818.69;4967278;28;46123;-61
2022/03/30 03:35:34;;;;;;;;;61.75;49.50;;;;;13.93;47.25;99812.66;4962365;28;45371;-61
2022/03/30 03:38:01;;;;;;;;;58.00;48.25;;;;;13.96;47.50;99816.97;4959324;28;45403;-61
2022/03/30 03:40:27;;;;;;;;;60.25;47.25;;;;;13.95;47.54;99817.91;4958862;28;45356;-61
2022/03/30 03:42:53;;;;;;;;;60.50;48.00;;;;;13.96;47.26;99815.19;4958844;28;46663;-61
2022/03/30 03:45:19;;;;;;;;;61.25;47.50;;;;;13.96;47.36;99814.31;4958863;28;45249;-62
2022/03/30 03:47:44;;;;;;;;;67.75;52.50;;;;;13.95;47.41;99815.28;4959095;28;45396;-61
2022/03/30 03:50:11;;;;;;;;;63.50;50.75;;;;;13.96;47.65;99817.84;4958618;28;45242;-61
2022/03/30 03:52:36;;;;;;;;;61.00;48.00;;;;;13.97;47.74;99808.13;4958804;28;45359;-61
2022/03/30 03:55:03;;;;;;;;;60.25;48.25;;;;;13.94;47.61;99817.03;4958591;28;45434;-61
2022/03/30 03:57:29;;;;;;;;;66.00;51.50;;;;;13.98;47.37;99809.84;4957858;28;45359;-61
2022/03/30 03:59:55;;;;;;;;;64.25;50.50;;;;;13.98;47.71;99812.50;4961661;28;45489;-61
2022/03/30 04:02:21;;;;;;;;;73.75;62.75;;;;;13.97;47.75;99809.00;4978092;28;46262;-62
2022/03/30 04:04:46;;;;;;;;;63.00;49.50;;;;;13.96;47.70;99804.63;4977908;28;45282;-62
2022/03/30 04:07:12;;;;;;;;;61.50;50.25;;;;;13.97;47.75;99809.00;4978281;28;45439;-62
2022/03/30 04:09:39;;;;;;;;;61.50;49.25;;;;;13.98;47.60;99809.84;4974867;28;45174;-62
2022/03/30 04:12:05;;;;;;;;;63.00;48.50;;;;;13.97;47.77;99814.28;4957136;28;47782;-62
2022/03/30 04:14:30;;;;;;;;;63.50;50.25;;;;;13.97;47.90;99809.00;4958499;28;45445;-61
2022/03/30 04:16:56;;;;;;;;;63.75;50.00;;;;;13.98;47.64;99815.97;4958749;28;45558;-61
2022/03/30 04:19:21;;;;;;;;;64.25;50.75;;;;;13.98;47.63;99807.19;4956889;28;45506;-61
2022/03/30 04:21:46;;;;;;;;;62.50;49.50;;;;;13.97;48.01;99806.34;4957031;28;46411;-61
2022/03/30 04:24:12;;;;;;;;;61.50;49.75;;;;;14.00;48.04;99804.50;4958217;28;45319;-61
2022/03/30 04:26:38;;;;;;;;;64.25;49.25;;;;;14.00;47.73;99809.78;4958579;28;45323;-61
2022/03/30 04:29:04;;;;;;;;;67.25;52.50;;;;;13.98;48.03;99810.69;4958414;28;45339;-61
2022/03/30 04:31:30;;;;;;;;;64.75;50.75;;;;;13.96;48.10;99799.34;4958186;28;46662;-61
2022/03/30 04:33:55;;;;;;;;;65.25;51.25;;;;;13.99;47.72;99801.00;4958287;28;45375;-61
2022/03/30 04:36:21;;;;;;;;;61.00;48.00;;;;;13.99;48.12;99795.72;4958242;28;45336;-61
2022/03/30 04:38:46;;;;;;;;;63.00;49.00;;;;;14.00;47.94;99797.44;4957064;28;45228;-61
2022/03/30 04:41:12;;;;;;;;;69.25;52.50;;;;;13.98;47.90;99789.56;4958003;28;45463;-62
2022/03/30 04:43:38;;;;;;;;;66.50;52.50;;;;;14.00;48.10;99797.44;4956791;28;45265;-61
2022/03/30 04:46:05;;;;;;;;;63.25;50.25;;;;;14.00;48.16;99780.72;4958402;28;45238;-61
2022/03/30 04:48:32;;;;;;;;;67.75;52.75;;;;;13.98;47.96;99784.28;4958116;28;45296;-60
2022/03/30 04:50:57;;;;;;;;;64.00;49.50;;;;;13.91;48.18;99768.78;4957754;28;45458;-60
2022/03/30 04:53:23;;;;;;;;;72.75;56.50;;;;;13.99;47.95;99782.50;4957872;28;45409;-60
2022/03/30 04:55:48;;;;;;;;;65.75;51.75;;;;;13.96;48.03;99774.69;4958030;28;45308;-60
2022/03/30 04:58:13;;;;;;;;;62.50;50.50;;;;;13.91;48.11;99767.00;4957765;28;45259;-60
2022/03/30 05:00:40;;;;;;;;;66.25;51.75;;;;;13.98;48.07;99779.00;4965392;28;47085;-61
2022/03/30 05:03:06;;;;;;;;;68.25;52.25;;;;;13.99;48.12;99779.88;4977229;28;45254;-61
2022/03/30 05:05:31;;;;;;;;;64.50;50.25;;;;;13.97;48.54;99777.31;4977301;28;45176;-61
2022/03/30 05:07:56;;;;;;;;;64.25;50.50;;;;;13.98;48.47;99779.00;4988175;28;45227;-60
2022/03/30 05:10:22;;;;;;;;;63.00;49.00;;;;;13.97;47.96;99768.50;4956278;28;45975;-61
2022/03/30 05:12:47;;;;;;;;;65.75;52.00;;;;;13.97;48.36;99776.44;4957582;28;45466;-61
2022/03/30 05:15:13;;;;;;;;;60.50;48.75;;;;;13.97;48.22;99765.88;4956608;28;45240;-61
2022/03/30 05:17:41;;;;;;;;;63.00;50.50;;;;;13.97;48.43;99765.88;4956403;28;45372;-60
2022/03/30 05:20:07;;;;;;;;;67.25;51.75;;;;;13.97;48.45;99769.38;4957349;28;45357;-61
2022/03/30 05:22:33;;;;;;;;;65.25;52.00;;;;;13.97;48.25;99768.50;4956065;28;45397;-60
2022/03/30 05:25:02;;;;;;;;;66.75;52.25;;;;;13.94;48.42;99768.66;4957635;28;45463;-60
2022/03/30 05:27:27;;;;;;;;;66.50;52.50;;;;;13.94;48.33;99773.94;4957583;28;45251;-61
2022/03/30 05:29:52;;;;;;;;;65.50;50.00;;;;;13.96;48.31;99765.00;4957417;28;45337;-61
2022/03/30 05:32:18;;;;;;;;;70.75;55.75;;;;;13.97;48.64;99773.78;4957396;28;45279;-61
2022/03/30 05:34:43;;;;;;;;;66.25;52.50;;;;;13.92;48.35;99768.72;4957418;28;45243;-61
2022/03/30 05:37:10;;;;;;;;;70.00;52.50;;;;;13.94;48.60;99768.66;4972361;28;45438;-61
2022/03/30 05:39:39;;;;;;;;;68.25;52.00;;;;;13.95;48.47;99773.00;4957104;28;45178;-62
2022/03/30 05:42:05;;;;;;;;;67.50;52.25;;;;;13.94;48.48;99777.41;4955867;28;45314;-60
2022/03/30 05:44:31;;;;;;;;;66.00;51.50;;;;;13.93;48.75;99780.97;4957439;28;45233;-60
2022/03/30 05:46:57;;;;;;;;;67.75;55.00;;;;;13.94;48.70;99781.84;4957117;28;45491;-60
2022/03/30 05:49:22;;;;;;;;;69.00;55.50;;;;;13.93;48.64;99777.50;4955600;28;46431;-61
2022/03/30 05:51:48;;;;;;;;;67.50;53.00;;;;;13.93;48.43;99780.13;4959775;28;45245;-61
2022/03/30 05:54:13;;;;;;;;;65.75;52.00;;;;;13.91;48.44;99771.41;4960272;28;45143;-60
2022/03/30 05:59:23;;;;;;;;;69.50;55.25;;;;;13.90;48.37;99775.84;4960169;28;45173;-61
2022/03/30 06:01:48;;;;;;;;;69.50;53.25;;;;;13.92;48.86;99778.41;4978099;28;45267;-62
2022/03/30 06:04:14;;;;;;;;;65.50;52.25;;;;;13.92;48.80;99781.94;4979640;28;45170;-61
2022/03/30 06:06:39;;;;;;;;;68.50;54.00;;;;;13.91;48.87;99781.97;4979562;28;45552;-61
2022/03/30 06:09:07;;;;;;;;;67.00;52.75;;;;;13.92;49.00;99775.78;4981167;28;45419;-61
2022/03/30 06:11:32;;;;;;;;;69.00;54.75;;;;;13.91;48.94;99784.63;4959799;28;45319;-61
2022/03/30 06:13:58;;;;;;;;;66.50;52.50;;;;;13.91;49.10;99781.97;4960162;28;45272;-61
2022/03/30 06:16:24;;;;;;;;;68.50;57.00;;;;;13.91;48.52;99780.22;4959850;28;45308;-61
2022/03/30 06:18:50;;;;;;;;;67.75;54.25;;;;;13.93;48.87;99795.97;4960067;28;45461;-62
2022/03/30 06:21:15;;;;;;;;;67.75;52.75;;;;;13.91;48.89;99782.84;4959641;28;45304;-62
2022/03/30 06:23:41;;;;;;;;;72.00;59.00;;;;;13.91;49.25;99787.25;4960005;28;45251;-61
2022/03/30 06:26:07;;;;;;;;;71.50;56.25;;;;;13.90;48.89;99791.69;4959653;28;45231;-61
2022/03/30 06:28:32;;;;;;;;;67.50;54.25;;;;;13.92;49.30;99794.25;4959816;28;45416;-62
2022/03/30 06:30:57;;;;;;;;;68.50;54.75;;;;;13.92;49.03;99792.50;4959867;28;45216;-62
2022/03/30 06:33:23;;;;;;;;;70.25;55.25;;;;;13.92;49.12;99791.63;4959851;28;45419;-62
2022/03/30 06:35:48;;;;;;;;;69.50;56.00;;;;;13.91;49.14;99796.06;4959397;28;45240;-61
2022/03/30 06:38:14;;;;;;;;;69.00;56.00;;;;;13.92;49.38;99800.41;4958358;28;46230;-61
2022/03/30 06:40:39;;;;;;;;;70.75;59.75;;;;;13.92;49.47;99799.53;4959555;28;45158;-61
2022/03/30 06:43:05;;;;;;;;;71.00;55.75;;;;;13.94;49.44;99800.34;4959652;28;45228;-62
2022/03/30 06:45:30;;;;;;;;;70.75;57.00;;;;;13.94;49.31;99795.06;4959528;28;45521;-62
2022/03/30 06:47:56;;;;;;;;;70.25;56.25;;;;;13.95;49.59;99795.00;4959608;28;45372;-61
2022/03/30 06:50:21;;;;;;;;;69.00;54.50;;;;;13.96;49.26;99804.63;4957919;28;45318;-61
2022/03/30 06:52:46;;;;;;;;;70.25;54.25;;;;;13.95;49.60;99800.28;4959700;28;45810;-61
2022/03/30 06:55:14;;;;;;;;;69.50;54.25;;;;;13.94;49.26;99793.28;4959263;28;45678;-64
2022/03/30 06:57:40;;;;;;;;;71.75;58.75;;;;;13.98;49.60;99804.56;4959481;28;46082;-61
2022/03/30 07:00:06;;;;;;;;;71.00;57.25;;;;;13.98;49.39;99800.13;4963596;28;45363;-64
2022/03/30 07:02:32;;;;;;;;;70.75;58.50;;;;;14.01;49.46;99806.22;4978000;28;45221;-61
2022/03/30 07:04:57;;;;;;;;;74.25;61.50;;;;;14.00;49.39;99804.50;4978504;28;45403;-62
2022/03/30 07:10:16;;;;;;;;;67.00;53.25;;;;;14.02;49.83;99811.41;4971433;28;45240;-62
2022/03/30 07:12:52;;;;;;;;;72.25;60.75;;;;;14.02;49.79;99803.50;4958013;28;45194;-61
2022/03/30 07:15:19;;;;;;;;;72.50;58.75;;;;;14.03;49.59;99799.09;4959167;28;45171;-61
2022/03/30 07:17:46;;;;;;;;;71.50;58.75;;;;;14.03;49.54;99797.28;4959057;28;45245;-61
2022/03/30 07:20:12;;;;;;;;;69.50;58.25;;;;;14.05;49.53;99797.22;4957750;28;45325;-61
2022/03/30 07:22:37;;;;;;;;;70.75;56.75;;;;;14.03;49.41;99797.28;4959041;28;45261;-62
2022/03/30 07:25:03;;;;;;;;;73.00;58.75;;;;;14.05;49.95;99799.84;4959217;28;45375;-61
2022/03/30 07:27:28;;;;;;;;;70.25;59.50;;;;;14.06;49.54;99796.31;4958890;28;46688;-62
2022/03/30 07:29:54;;;;;;;;;70.75;59.75;;;;;14.06;49.69;99794.53;4959216;28;45423;-62
2022/03/30 07:32:19;;;;;;;;;72.00;56.25;;;;;14.01;49.89;99779.78;4959030;28;45316;-62
2022/03/30 07:34:45;;;;;;;;;67.50;54.75;;;;;14.08;49.74;99789.19;4967485;28;45656;-62
2022/03/30 07:37:11;;;;;;;;;70.25;56.75;;;;;14.02;49.84;99785.00;4962040;28;46421;-61
2022/03/30 07:39:36;;;;;;;;;67.00;55.00;;;;;14.11;50.10;99796.94;4958799;28;45174;-61
2022/03/30 07:42:02;;;;;;;;;68.25;54.50;;;;;14.06;49.95;99785.72;4958997;28;45277;-62
2022/03/30 07:44:28;;;;;;;;;67.75;52.50;;;;;14.13;50.07;99798.59;4957751;28;45473;-61
2022/03/30 07:46:53;;;;;;;;;70.00;51.00;;;;;14.13;49.74;99795.97;4958713;28;45470;-62
2022/03/30 07:49:19;;;;;;;;;69.00;55.75;;;;;14.15;49.74;99795.91;4957343;28;45179;-61
2022/03/30 07:51:44;;;;;;;;;68.25;55.00;;;;;14.17;49.99;99793.19;4958850;28;45231;-62
2022/03/30 07:54:10;;;;;;;;;70.00;55.75;;;;;14.16;49.99;99784.41;4958659;28;45463;-62
2022/03/30 07:56:35;;;;;;;;;72.50;59.75;;;;;14.17;49.86;99788.75;4958578;28;46093;-63
2022/03/30 07:59:01;;;;;;;;;72.00;57.00;;;;;14.18;49.83;99784.34;4958552;28;45354;-62
2022/03/30 08:01:27;;;;;;;;;70.50;58.25;;;;;14.16;49.62;99786.19;4974039;28;45477;-62
2022/03/30 08:03:52;;;;;;;;;66.25;51.75;;;;;14.16;50.15;99784.41;4978087;28;45316;-62
2022/03/30 08:06:18;;;;;;;;;73.50;56.75;;;;;14.17;49.95;99788.75;4977758;28;45368;-62
2022/03/30 08:08:43;;;;;;;;;70.00;57.75;;;;;14.17;50.04;99791.41;5009430;27;45251;-62
2022/03/30 08:11:09;;;;;;;;;70.50;57.50;;;;;14.17;49.87;99791.41;4958419;28;45415;-61
2022/03/30 08:13:35;;;;;;;;;70.25;56.75;;;;;14.17;49.71;99793.19;4958444;28;45318;-61
2022/03/30 08:16:00;;;;;;;;;69.25;54.50;;;;;14.18;50.23;99798.41;4956984;28;47128;-62
2022/03/30 08:18:25;;;;;;;;;70.75;58.25;;;;;14.19;50.14;99797.50;4957180;28;45281;-62
2022/03/30 08:23:36;;;;;;;;;74.50;61.25;;;;;14.18;49.89;99795.75;4958350;28;45310;-61
2022/03/30 08:26:02;;;;;;;;;70.25;55.75;;;;;14.16;50.25;99794.13;4958069;28;45311;-61
2022/03/30 08:28:27;;;;;;;;;66.75;53.50;;;;;14.19;50.35;99794.84;4958346;28;45273;-61
2022/03/30 08:30:53;;;;;;;;;71.50;59.75;;;;;14.18;50.32;99792.28;4958322;28;45653;-61
2022/03/30 08:33:23;;;;;;;;;70.00;59.50;;;;;14.18;50.12;99795.75;4958174;28;45510;-61
2022/03/30 08:35:50;;;;;;;;;71.50;58.75;;;;;14.18;50.32;99787.84;4956659;28;46465;-62
2022/03/30 08:38:15;;;;;;;;;70.25;56.25;;;;;14.18;50.45;99793.13;4958246;28;45327;-62
2022/03/30 08:40:41;;;;;;;;;74.00;61.25;;;;;14.18;50.19;99784.34;4958065;28;45241;-61
2022/03/30 08:43:07;;;;;;;;;72.75;61.25;;;;;14.18;50.20;99790.47;4958055;28;45599;-61
2022/03/30 08:45:32;;;;;;;;;69.25;55.00;;;;;14.19;50.12;99801.91;4956708;28;47053;-61
2022/03/30 08:47:57;;;;;;;;;69.75;56.50;;;;;14.19;50.26;99791.31;4958028;28;45262;-61
2022/03/30 08:50:23;;;;;;;;;73.25;59.00;;;;;14.19;50.23;99789.56;4957802;28;45154;-61
2022/03/30 08:52:53;;;;;;;;;66.75;53.00;;;;;14.17;50.65;99794.03;4958304;28;45433;-61
2022/03/30 08:55:18;;;;;;;;;69.75;56.25;;;;;14.18;50.32;99793.13;4956439;28;46902;-62
2022/03/30 08:57:44;;;;;;;;;72.00;59.00;;;;;14.19;50.38;99792.19;4957864;28;45392;-62
2022/03/30 09:00:19;;;;;;;;;69.50;54.75;;;;;14.20;50.46;99796.56;4963018;28;45489;-62
2022/03/30 09:02:49;;;;;;;;;73.00;58.25;;;;;14.19;50.21;99792.19;4977340;28;45339;-62
2022/03/30 09:05:20;;;;;;;;;74.75;63.50;;;;;14.17;50.58;99783.47;4977173;28;46210;-61
2022/03/30 09:07:48;;;;;;;;;72.75;62.25;;;;;14.19;50.30;99789.56;4989383;28;45287;-61
2022/03/30 09:10:15;;;;;;;;;71.00;56.75;;;;;14.21;50.44;99794.78;4957729;28;45419;-61
2022/03/30 09:12:43;;;;;;;;;73.25;62.25;;;;;14.20;50.20;99793.03;4957761;28;45426;-61
2022/03/30 09:15:08;;;;;;;;;73.50;61.75;;;;;14.21;50.57;99789.50;4957699;28;46460;-61
2022/03/30 09:17:39;;;;;;;;;73.00;57.50;;;;;14.20;50.52;99796.56;4957541;28;45312;-61
2022/03/30 09:20:06;;;;;;;;;71.00;58.50;;;;;14.18;50.28;99793.13;4956490;28;45217;-61
2022/03/30 09:22:33;;;;;;;;;73.50;62.00;;;;;14.21;50.33;99798.25;4957448;28;45254;-62
2022/03/30 09:24:58;;;;;;;;;72.33;59.33;;;;;14.21;50.59;99787.69;4957767;28;45435;-62
2022/03/30 09:27:24;;;;;;;;;70.25;56.75;;;;;14.26;50.52;99792.78;4959218;28;46184;-61
2022/03/30 09:29:50;;;;;;;;;73.00;59.75;;;;;14.28;50.58;99797.06;4960505;28;45470;-62
2022/03/30 09:32:16;;;;;;;;;70.75;57.50;;;;;14.30;50.77;99795.22;4959206;28;45380;-62
2022/03/30 09:34:53;;;;;;;;;69.75;53.00;;;;;14.34;50.74;99795.06;4959215;28;45578;-62
2022/03/30 09:37:19;;;;;;;;;74.50;63.00;;;;;14.38;51.00;99792.22;4960352;28;45229;-61
2022/03/30 09:39:45;;;;;;;;;71.75;59.75;;;;;14.42;50.35;99788.50;4943012;28;45275;-61
2022/03/30 09:42:13;;;;;;;;;75.00;66.00;;;;;14.47;50.90;99794.44;4958942;28;45443;-62
2022/03/30 09:44:51;;;;;;;;;72.25;59.75;;;;;14.53;50.87;99793.31;4960387;28;45526;-62
2022/03/30 09:47:19;;;;;;;;;75.50;62.75;;;;;14.60;50.44;99791.25;4958987;28;45653;-61
2022/03/30 09:49:50;;;;;;;;;79.50;60.50;;;;;14.65;50.80;99793.72;4960297;28;45263;-62
2022/03/30 09:52:23;;;;;;;;;73.50;56.00;;;;;14.69;50.69;99796.16;4960386;28;45422;-62
2022/03/30 09:54:53;;;;;;;;;73.75;59.50;;;;;14.72;50.60;99784.59;4960063;28;45423;-62
2022/03/30 09:57:37;;;;;;;;;72.00;58.00;;;;;14.78;50.66;99795.72;4960352;28;45355;-62
2022/03/30 10:00:12;;;;;;;;;76.00;58.00;;;;;14.85;50.52;99791.00;4963070;28;45349;-63
2022/03/30 10:02:47;;;;;;;;;70.00;57.50;;;;;14.88;50.73;99790.88;4978298;28;45228;-61
2022/03/30 10:05:14;;;;;;;;;77.75;59.50;;;;;14.94;50.96;99787.94;4979328;28;45355;-62
2022/03/30 10:07:40;;;;;;;;;72.50;57.75;;;;;14.97;50.83;99780.75;4991710;28;45422;-62
2022/03/30 10:10:08;;;;;;;;;57.50;45.75;;;;;15.05;50.33;99781.25;4960204;28;45229;-62
2022/03/30 10:12:34;;;;;;;;;76.50;59.75;;;;;15.08;50.77;99779.34;4959878;28;45399;-62
2022/03/30 10:15:00;;;;;;;;;72.75;57.00;;;;;15.08;50.78;99773.16;4965586;28;45341;-62
2022/03/30 10:17:29;;;;;;;;;69.75;56.00;;;;;15.16;50.83;99773.66;4965966;28;45316;-61
2022/03/30 10:19:57;;;;;;;;;74.75;55.50;;;;;15.17;50.83;99774.50;4959868;28;45315;-61
2022/03/30 10:22:38;;;;;;;;;71.25;55.50;;;;;15.24;50.16;99779.47;4959746;28;45435;-63
2022/03/30 10:25:18;;;;;;;;;76.00;57.25;;;;;15.26;50.59;99772.28;4959569;28;46353;-62
2022/03/30 10:27:43;;;;;;;;;73.00;55.75;;;;;15.30;50.20;99778.28;4958488;28;45363;-62
2022/03/30 10:30:11;;;;;;;;;74.75;55.75;;;;;15.33;50.74;99764.03;4960031;28;45265;-62
2022/03/30 10:32:38;;;;;;;;;75.00;58.75;;;;;15.34;50.01;99774.53;4959653;28;45245;-62
2022/03/30 10:35:13;;;;;;;;;70.00;52.50;;;;;15.38;50.43;99773.47;4959609;28;46200;-62
2022/03/30 10:37:42;;;;;;;;;73.25;55.25;;;;;15.38;50.29;99757.59;4965304;28;45399;-62
2022/03/30 10:40:10;;;;;;;;;70.00;53.00;;;;;15.45;50.41;99758.13;4979060;28;45427;-61
2022/03/30 10:42:48;;;;;;;;;69.25;53.75;;;;;15.51;49.91;99760.47;4977908;27;45399;-62
2022/03/30 10:45:26;;;;;;;;;64.75;52.25;;;;;15.55;50.16;99756.75;4977596;28;47396;-62
2022/03/30 10:48:08;;;;;;;;;66.25;52.75;;;;;15.65;50.41;99761.59;4977841;27;45351;-62
2022/03/30 10:50:47;;;;;;;;;66.50;51.25;;;;;15.71;50.46;99750.66;4979010;28;45230;-63
2022/03/30 10:53:34;;;;;;;;;64.75;49.50;;;;;15.80;49.90;99752.84;4978838;28;45331;-62
2022/03/30 10:56:14;;;;;;;;;69.50;54.25;;;;;15.87;50.17;99748.97;4978889;28;45321;-62
2022/03/30 10:59:00;;;;;;;;;69.25;54.75;;;;;15.93;50.00;99748.63;4963190;27;45323;-62
2022/03/30 11:01:30;;;;;;;;;69.25;53.50;;;;;16.02;50.09;99743.81;4973300;28;45327;-61
2022/03/30 11:04:16;;;;;;;;;68.00;53.00;;;;;16.09;49.86;99737.25;4978556;28;45295;-61
2022/03/30 11:06:44;;;;;;;;;70.75;56.00;;;;;16.17;50.11;99734.19;4978659;28;45180;-62
2022/03/30 11:09:19;;;;;;;;;65.75;52.25;;;;;16.25;49.80;99734.63;4982344;28;45347;-62
2022/03/30 11:12:02;;;;;;;;;69.50;54.25;;;;;16.34;49.64;99733.25;4959267;28;45308;-62
2022/03/30 11:14:37;;;;;;;;;68.50;52.75;;;;;16.44;49.73;99730.97;4959279;28;45229;-62
2022/03/30 11:17:04;;;;;;;;;67.00;52.25;;;;;16.54;49.66;99727.75;4959195;28;47026;-62
2022/03/30 11:19:58;;;;;;;;;59.25;48.25;;;;;16.65;49.42;99723.63;4958936;28;45233;-62
2022/03/30 11:22:28;;;;;;;;;68.25;53.75;;;;;16.76;49.55;99721.25;4959152;28;45249;-63
2022/03/30 11:25:22;;;;;;;;;72.75;53.50;;;;;16.88;49.64;99731.16;4959261;28;45446;-63
2022/03/30 11:27:57;;;;;;;;;64.00;50.75;;;;;17.00;49.61;99723.47;4959112;28;47000;-62